createdAt,value
2023-04-28T00:00:37.844Z,5.05
2023-04-28T00:03:05.326Z,5.18
2023-04-28T00:05:33.741Z,4.97
2023-04-28T00:08:00.936Z,5.05
2023-04-28T00:10:28.057Z,4.85
2023-04-28T00:12:55.103Z,5.65
2023-04-28T00:15:22.243Z,5.35
2023-04-28T00:17:49.565Z,6.15
2023-04-28T00:20:16.742Z,5.82
2023-04-28T00:22:43.820Z,5.38
2023-04-28T00:25:10.918Z,4.60
2023-04-28T00:27:37.994Z,4.40
2023-04-28T00:30:05.290Z,5.40
2023-04-28T00:32:32.356Z,5.43
2023-04-28T00:34:59.377Z,4.97
2023-04-28T00:37:26.433Z,5.57
2023-04-28T00:39:56.965Z,4.78
2023-04-28T00:42:24.330Z,5.53
2023-04-28T00:44:51.496Z,5.78
2023-04-28T00:47:21.860Z,5.50
2023-04-28T00:49:49.630Z,4.40
2023-04-28T00:52:16.886Z,5.63
2023-04-28T00:54:43.991Z,5.97
2023-04-28T00:57:11.039Z,5.00
2023-04-28T00:59:38.211Z,4.93
2023-04-28T01:02:07.594Z,6.00
2023-04-28T01:04:35.819Z,5.50
2023-04-28T01:07:03.197Z,5.10
2023-04-28T01:09:30.530Z,5.25
2023-04-28T01:11:58.358Z,5.45
2023-04-28T01:14:25.606Z,6.00
2023-04-28T01:16:53.764Z,6.18
2023-04-28T01:19:22.397Z,5.70
2023-04-28T01:21:52.728Z,5.25
2023-04-28T01:24:19.909Z,5.30
2023-04-28T01:26:46.952Z,5.00
2023-04-28T01:29:14.258Z,5.40
2023-04-28T01:31:41.448Z,4.60
2023-04-28T01:34:08.525Z,5.28
2023-04-28T01:36:37.562Z,4.75
2023-04-28T01:39:05.418Z,4.57
2023-04-28T01:41:34.497Z,4.85
2023-04-28T01:44:01.630Z,5.00
2023-04-28T01:46:28.690Z,4.90
2023-04-28T01:48:55.762Z,4.95
2023-04-28T01:51:22.808Z,4.57
2023-04-28T01:53:49.866Z,4.55
2023-04-28T01:56:16.919Z,4.70
2023-04-28T01:58:44.126Z,5.25
2023-04-28T02:01:11.462Z,4.80
2023-04-28T02:03:38.696Z,4.80
2023-04-28T02:06:06.031Z,4.88
2023-04-28T02:08:33.102Z,4.82
2023-04-28T02:11:01.573Z,5.18
2023-04-28T02:13:28.618Z,4.97
2023-04-28T02:15:55.954Z,4.93
2023-04-28T02:18:23.028Z,5.38
2023-04-28T02:20:50.134Z,4.95
2023-04-28T02:23:17.222Z,5.68
2023-04-28T02:25:44.288Z,4.63
2023-04-28T02:28:11.380Z,5.47
2023-04-28T02:30:38.430Z,5.47
2023-04-28T02:33:05.538Z,4.95
2023-04-28T02:35:32.662Z,4.90
2023-04-28T02:37:59.712Z,4.93
2023-04-28T02:40:26.770Z,4.30
2023-04-28T02:42:53.831Z,5.22
2023-04-28T02:45:21.113Z,5.43
2023-04-28T02:47:48.236Z,5.10
2023-04-28T02:50:15.305Z,4.97
2023-04-28T02:52:42.399Z,4.53
2023-04-28T02:55:09.602Z,5.00
2023-04-28T02:57:36.641Z,5.78
2023-04-28T03:00:03.785Z,5.18
2023-04-28T03:02:31.357Z,5.25
2023-04-28T03:04:58.598Z,4.78
2023-04-28T03:07:25.841Z,4.95
2023-04-28T03:09:52.864Z,4.90
2023-04-28T03:12:19.921Z,4.82
2023-04-28T03:14:47.260Z,5.25
2023-04-28T03:17:14.338Z,4.78
2023-04-28T03:19:41.531Z,4.95
2023-04-28T03:22:08.565Z,4.70
2023-04-28T03:24:35.791Z,4.97
2023-04-28T03:27:03.736Z,5.78
2023-04-28T03:29:30.770Z,5.30
2023-04-28T03:31:57.933Z,4.97
2023-04-28T03:34:25.134Z,5.25
2023-04-28T03:36:52.234Z,5.65
2023-04-28T03:39:19.287Z,5.40
2023-04-28T03:41:46.443Z,5.72
2023-04-28T03:44:13.504Z,5.72
2023-04-28T03:46:40.786Z,4.75
2023-04-28T03:49:07.871Z,5.25
2023-04-28T03:51:34.915Z,4.53
2023-04-28T03:54:02.072Z,3.85
2023-04-28T03:56:29.190Z,5.40
2023-04-28T03:58:56.205Z,6.47
2023-04-28T04:01:23.865Z,5.07
2023-04-28T04:03:51.897Z,5.07
2023-04-28T04:06:19.117Z,4.90
2023-04-28T04:08:46.314Z,5.63
2023-04-28T04:11:13.388Z,5.78
2023-04-28T04:13:40.436Z,5.53
2023-04-28T04:16:07.918Z,5.00
2023-04-28T04:18:35.135Z,5.55
2023-04-28T04:21:02.208Z,4.75
2023-04-28T04:23:29.547Z,5.15
2023-04-28T04:25:56.716Z,5.18
2023-04-28T04:28:23.804Z,5.50
2023-04-28T04:30:50.895Z,4.93
2023-04-28T04:33:17.918Z,5.55
2023-04-28T04:35:44.986Z,3.88
2023-04-28T04:38:12.075Z,5.25
2023-04-28T04:40:39.073Z,5.60
2023-04-28T04:43:06.169Z,4.45
2023-04-28T04:45:33.673Z,4.68
2023-04-28T04:48:00.728Z,5.38
2023-04-28T04:50:27.819Z,4.68
2023-04-28T04:52:56.628Z,4.97
2023-04-28T04:55:23.741Z,4.85
2023-04-28T04:57:50.799Z,4.32
2023-04-28T05:00:18.227Z,4.70
2023-04-28T05:02:45.473Z,4.75
2023-04-28T05:05:21.472Z,4.32
2023-04-28T05:07:49.778Z,5.18
2023-04-28T05:10:16.827Z,4.38
2023-04-28T05:12:45.616Z,4.57
2023-04-28T05:15:14.639Z,4.43
2023-04-28T05:17:41.655Z,4.97
2023-04-28T05:20:09.614Z,5.03
2023-04-28T05:22:37.204Z,4.53
2023-04-28T05:25:04.406Z,4.47
2023-04-28T05:27:31.596Z,4.95
2023-04-28T05:29:59.942Z,4.60
2023-04-28T05:32:27.024Z,4.90
2023-04-28T05:34:54.036Z,4.65
2023-04-28T05:37:21.102Z,4.47
2023-04-28T05:39:48.190Z,4.78
2023-04-28T05:42:15.243Z,4.43
2023-04-28T05:44:43.176Z,4.82
2023-04-28T05:47:10.403Z,4.43
2023-04-28T05:49:37.796Z,4.53
2023-04-28T05:52:05.272Z,4.53
2023-04-28T05:54:34.313Z,4.43
2023-04-28T05:57:02.002Z,3.97
2023-04-28T05:59:30.621Z,3.80
2023-04-28T06:01:57.741Z,3.97
2023-04-28T06:04:26.380Z,4.30
2023-04-28T06:06:53.959Z,4.15
2023-04-28T06:09:21.012Z,3.47
2023-04-28T06:11:48.033Z,4.40
2023-04-28T06:14:15.354Z,3.83
2023-04-28T06:16:42.573Z,3.47
2023-04-28T06:19:09.739Z,3.88
2023-04-28T06:21:37.125Z,4.38
2023-04-28T06:24:04.353Z,3.92
2023-04-28T06:26:31.404Z,4.63
2023-04-28T06:28:58.513Z,4.03
2023-04-28T06:31:25.553Z,4.15
2023-04-28T06:33:52.622Z,4.05
2023-04-28T06:36:19.694Z,4.30
2023-04-28T06:38:46.881Z,3.88
2023-04-28T06:41:14.164Z,4.20
2023-04-28T06:43:41.293Z,3.97
2023-04-28T06:46:08.588Z,4.63
2023-04-28T06:48:35.728Z,3.80
2023-04-28T06:51:02.831Z,4.35
2023-04-28T06:53:29.856Z,4.45
2023-04-28T06:55:56.989Z,4.13
2023-04-28T06:58:24.066Z,4.07
2023-04-28T07:00:51.223Z,4.22
2023-04-28T07:03:18.380Z,3.60
2023-04-28T07:05:46.418Z,3.88
2023-04-28T07:08:13.532Z,4.03
2023-04-28T07:10:40.750Z,3.75
2023-04-28T07:13:08.226Z,3.47
2023-04-28T07:15:36.651Z,4.22
2023-04-28T07:18:03.888Z,3.63
2023-04-28T07:20:31.030Z,3.95
2023-04-28T07:22:58.152Z,4.10
2023-04-28T07:25:25.253Z,3.60
2023-04-28T07:27:52.373Z,4.15
2023-04-28T07:32:52.756Z,3.55
2023-04-28T07:35:19.883Z,4.32
2023-04-28T07:37:47.266Z,4.07
2023-04-28T07:40:14.416Z,4.10
2023-04-28T07:42:41.563Z,3.30
2023-04-28T07:45:08.931Z,3.60
2023-04-28T07:47:36.574Z,3.50
2023-04-28T07:50:05.142Z,3.30
2023-04-28T07:52:32.437Z,3.90
2023-04-28T07:54:59.782Z,3.75
2023-04-28T07:57:27.025Z,3.60
2023-04-28T07:59:54.139Z,4.03
2023-04-28T08:02:21.727Z,3.55
2023-04-28T08:04:48.969Z,3.95
2023-04-28T08:07:16.121Z,3.30
2023-04-28T08:09:47.074Z,4.03
2023-04-28T08:12:14.724Z,3.37
2023-04-28T08:14:41.826Z,3.40
2023-04-28T08:17:09.364Z,3.50
2023-04-28T08:19:36.560Z,3.42
2023-04-28T08:22:07.301Z,3.92
2023-04-28T08:24:34.808Z,3.28
2023-04-28T08:27:05.782Z,3.42
2023-04-28T08:29:33.207Z,3.63
2023-04-28T08:32:02.292Z,3.85
2023-04-28T08:34:29.548Z,4.38
2023-04-28T08:36:56.672Z,4.22
2023-04-28T08:39:23.866Z,3.95
2023-04-28T08:41:51.506Z,3.47
2023-04-28T08:44:19.138Z,3.47
2023-04-28T08:46:47.522Z,3.75
2023-04-28T08:49:19.137Z,3.97
2023-04-28T08:51:57.341Z,3.55
2023-04-28T08:54:26.933Z,3.70
2023-04-28T08:56:55.010Z,3.60
2023-04-28T08:59:22.317Z,3.60
2023-04-28T09:01:50.413Z,4.30
2023-04-28T09:04:21.493Z,4.00
2023-04-28T09:06:49.434Z,3.53
2023-04-28T09:09:27.355Z,3.75
2023-04-28T09:12:01.806Z,4.57
2023-04-28T09:14:29.540Z,4.05
2023-04-28T09:16:56.910Z,3.90
2023-04-28T09:19:24.017Z,3.17
2023-04-28T09:21:51.099Z,3.85
2023-04-28T09:24:32.038Z,3.85
2023-04-28T09:27:02.595Z,3.20
2023-04-28T09:29:30.000Z,4.20
2023-04-28T09:32:16.351Z,3.70
2023-04-28T09:34:47.368Z,3.70
2023-04-28T09:37:21.522Z,4.35
2023-04-28T09:39:50.597Z,4.30
2023-04-28T09:42:36.637Z,3.75
2023-04-28T09:45:07.677Z,3.83
2023-04-28T09:47:36.578Z,3.75
2023-04-28T09:50:06.105Z,3.50
2023-04-28T09:52:37.440Z,3.80
2023-04-28T09:55:05.521Z,3.97
2023-04-28T09:57:33.677Z,4.18
2023-04-28T10:00:01.307Z,3.67
2023-04-28T10:04:59.089Z,4.15
2023-04-28T10:07:27.319Z,4.07
2023-04-28T10:09:56.285Z,3.17
2023-04-28T10:12:24.347Z,3.20
2023-04-28T10:14:55.383Z,3.08
2023-04-28T10:17:22.820Z,3.65
2023-04-28T10:19:52.400Z,3.85
2023-04-28T10:22:33.419Z,3.00
2023-04-28T10:25:14.002Z,3.47
2023-04-28T10:27:42.383Z,2.90
2023-04-28T10:30:26.508Z,3.40
2023-04-28T10:33:14.272Z,3.00
2023-04-28T10:35:42.783Z,3.35
2023-04-28T10:38:21.681Z,3.33
2023-04-28T10:40:49.632Z,3.70
2023-04-28T10:43:28.972Z,3.58
2023-04-28T10:45:57.927Z,3.58
2023-04-28T10:48:45.071Z,3.78
2023-04-28T10:51:14.824Z,4.18
2023-04-28T10:53:45.071Z,3.70
2023-04-28T10:56:12.379Z,3.60
2023-04-28T10:58:43.629Z,3.83
2023-04-28T11:01:19.881Z,3.45
2023-04-28T11:03:47.399Z,3.03
2023-04-28T11:06:26.705Z,3.13
2023-04-28T11:08:55.837Z,3.65
2023-04-28T11:11:25.609Z,3.67
2023-04-28T11:13:53.346Z,3.67
2023-04-28T11:16:21.859Z,3.22
2023-04-28T11:18:54.942Z,4.10
2023-04-28T11:21:23.463Z,3.97
2023-04-28T11:23:50.856Z,3.83
2023-04-28T11:26:19.226Z,4.50
2023-04-28T11:28:49.285Z,4.65
2023-04-28T11:31:22.530Z,4.63
2023-04-28T11:33:50.853Z,4.95
2023-04-28T11:36:24.793Z,5.97
2023-04-28T11:38:51.893Z,5.90
2023-04-28T11:41:19.034Z,6.88
2023-04-28T11:43:47.744Z,8.07
2023-04-28T11:46:22.024Z,8.13
2023-04-28T11:48:49.712Z,8.93
2023-04-28T11:51:33.187Z,8.43
2023-04-28T11:54:01.359Z,8.30
2023-04-28T11:56:29.107Z,8.50
2023-04-28T11:59:05.418Z,8.23
2023-04-28T12:01:33.390Z,8.63
2023-04-28T12:04:01.299Z,9.18
2023-04-28T12:06:28.513Z,8.15
2023-04-28T12:08:55.659Z,8.70
2023-04-28T12:11:23.544Z,7.57
2023-04-28T12:14:06.074Z,7.70
2023-04-28T12:16:43.280Z,8.73
2023-04-28T12:19:11.183Z,7.82
2023-04-28T12:21:39.814Z,8.23
2023-04-28T12:24:20.525Z,7.90
2023-04-28T12:26:48.430Z,8.90
2023-04-28T12:29:34.483Z,9.23
2023-04-28T12:32:01.865Z,9.38
2023-04-28T12:34:30.556Z,9.98
2023-04-28T12:36:57.926Z,9.77
2023-04-28T12:39:26.106Z,9.57
2023-04-28T12:41:55.124Z,9.55
2023-04-28T12:44:23.079Z,10.18
2023-04-28T12:46:50.226Z,9.60
2023-04-28T12:49:17.327Z,10.45
2023-04-28T12:51:44.885Z,10.25
2023-04-28T12:54:11.972Z,10.38
2023-04-28T12:56:39.025Z,10.75
2023-04-28T12:59:06.217Z,10.85
2023-04-28T13:01:33.773Z,10.43
2023-04-28T13:04:00.972Z,11.85
2023-04-28T13:06:28.834Z,11.13
2023-04-28T13:08:55.905Z,11.32
2023-04-28T13:11:24.825Z,11.32
2023-04-28T13:13:52.809Z,11.50
2023-04-28T13:16:20.390Z,11.88
2023-04-28T13:18:48.935Z,11.45
2023-04-28T13:21:16.186Z,11.50
2023-04-28T13:23:43.252Z,12.50
2023-04-28T13:26:10.374Z,12.45
2023-04-28T13:28:37.584Z,13.02
2023-04-28T13:31:04.791Z,12.52
2023-04-28T13:33:32.074Z,11.70
2023-04-28T13:35:59.405Z,12.85
2023-04-28T13:38:26.598Z,11.27
2023-04-28T13:40:54.138Z,10.85
2023-04-28T13:43:21.265Z,10.45
2023-04-28T13:45:48.624Z,9.82
2023-04-28T13:48:16.195Z,10.15
2023-04-28T13:50:43.311Z,10.52
2023-04-28T13:53:10.935Z,10.20
2023-04-28T13:55:38.089Z,10.65
2023-04-28T13:58:06.668Z,9.93
2023-04-28T14:00:34.810Z,10.50
2023-04-28T14:03:02.493Z,9.20
2023-04-28T14:05:38.961Z,9.20
2023-04-28T14:08:13.288Z,9.55
2023-04-28T14:10:40.383Z,9.05
2023-04-28T14:13:07.650Z,9.75
2023-04-28T14:15:35.156Z,10.27
2023-04-28T14:18:03.284Z,10.15
2023-04-28T14:20:31.062Z,9.07
2023-04-28T14:22:58.167Z,9.88
2023-04-28T14:25:25.218Z,9.40
2023-04-28T14:27:52.424Z,9.27
2023-04-28T14:30:19.947Z,9.43
2023-04-28T14:32:47.136Z,8.10
2023-04-28T14:35:15.462Z,9.30
2023-04-28T14:37:42.790Z,8.63
2023-04-28T14:40:10.155Z,8.52
2023-04-28T14:42:37.557Z,8.50
2023-04-28T14:45:05.393Z,7.90
2023-04-28T14:47:32.873Z,7.72
2023-04-28T14:50:00.611Z,8.10
2023-04-28T14:52:29.111Z,7.80
2023-04-28T14:54:56.644Z,8.63
2023-04-28T14:57:24.010Z,8.27
2023-04-28T14:59:54.600Z,8.68
2023-04-28T15:02:27.862Z,7.25
2023-04-28T15:04:56.583Z,7.00
2023-04-28T15:07:23.776Z,7.35
2023-04-28T15:09:51.392Z,6.93
2023-04-28T15:12:18.534Z,6.47
2023-04-28T15:14:45.692Z,6.70
2023-04-28T15:17:12.892Z,5.72
2023-04-28T15:19:39.952Z,6.20
2023-04-28T15:22:07.056Z,4.72
2023-04-28T15:24:34.132Z,4.32
2023-04-28T15:27:03.896Z,4.38
2023-04-28T15:29:31.034Z,3.55
2023-04-28T15:31:58.206Z,3.60
2023-04-28T15:34:25.306Z,3.65
2023-04-28T15:36:53.770Z,3.90
2023-04-28T15:39:20.829Z,3.35
2023-04-28T15:41:48.017Z,3.85
2023-04-28T15:44:15.343Z,4.07
2023-04-28T15:46:42.632Z,4.20
2023-04-28T15:49:09.912Z,3.70
2023-04-28T15:51:36.995Z,3.72
2023-04-28T15:54:04.254Z,4.40
2023-04-28T15:56:31.609Z,4.35
2023-04-28T15:58:58.809Z,5.05
2023-04-28T16:01:26.021Z,4.80
2023-04-28T16:03:53.214Z,5.10
2023-04-28T16:06:20.470Z,5.07
2023-04-28T16:08:47.542Z,5.57
2023-04-28T16:11:17.887Z,5.90
2023-04-28T16:13:45.414Z,5.75
2023-04-28T16:16:12.997Z,6.00
2023-04-28T16:18:40.146Z,7.80
2023-04-28T16:21:07.716Z,7.70
2023-04-28T16:23:34.832Z,6.47
2023-04-28T16:26:01.904Z,7.95
2023-04-28T16:28:28.932Z,7.80
2023-04-28T16:30:56.403Z,9.15
2023-04-28T16:33:23.480Z,8.27
2023-04-28T16:35:58.222Z,8.50
2023-04-28T16:38:25.383Z,9.07
2023-04-28T16:40:52.453Z,9.20
2023-04-28T16:43:19.488Z,8.40
2023-04-28T16:45:46.615Z,9.60
2023-04-28T16:48:16.091Z,9.60
2023-04-28T16:50:43.270Z,9.43
2023-04-28T16:53:10.350Z,8.38
2023-04-28T16:55:37.427Z,8.55
2023-04-28T16:58:04.591Z,9.35
2023-04-28T17:00:31.797Z,7.97
2023-04-28T17:02:59.135Z,9.27
2023-04-28T17:05:26.409Z,8.80
2023-04-28T17:07:54.996Z,8.20
2023-04-28T17:10:22.500Z,8.68
2023-04-28T17:12:49.608Z,9.05
2023-04-28T17:15:17.474Z,8.18
2023-04-28T17:17:45.481Z,7.38
2023-04-28T17:20:16.538Z,7.75
2023-04-28T17:22:44.053Z,6.73
2023-04-28T17:25:12.093Z,8.38
2023-04-28T17:27:39.404Z,7.70
2023-04-28T17:30:09.882Z,8.45
2023-04-28T17:32:37.481Z,7.72
2023-04-28T17:35:05.026Z,7.70
2023-04-28T17:37:37.192Z,8.10
2023-04-28T17:40:04.704Z,8.73
2023-04-28T17:42:31.906Z,8.52
2023-04-28T17:44:59.094Z,9.73
2023-04-28T17:47:26.307Z,8.45
2023-04-28T17:49:53.338Z,8.48
2023-04-28T17:52:20.714Z,8.60
2023-04-28T17:54:47.935Z,9.45
2023-04-28T17:57:15.112Z,9.75
2023-04-28T17:59:42.722Z,9.23
2023-04-28T18:02:10.507Z,9.48
2023-04-28T18:04:38.101Z,10.32
2023-04-28T18:07:05.788Z,9.35
2023-04-28T18:09:32.927Z,10.27
2023-04-28T18:12:02.976Z,9.80
2023-04-28T18:14:30.092Z,9.52
2023-04-28T18:16:57.383Z,10.95
2023-04-28T18:19:26.603Z,10.60
2023-04-28T18:21:55.152Z,10.43
2023-04-28T18:24:22.219Z,10.98
2023-04-28T18:26:49.268Z,10.75
2023-04-28T18:29:16.298Z,10.48
2023-04-28T18:31:43.484Z,10.63
2023-04-28T18:34:10.969Z,10.75
2023-04-28T18:36:38.287Z,10.57
2023-04-28T18:39:07.092Z,11.77
2023-04-28T18:41:35.846Z,12.82
2023-04-28T18:44:03.425Z,10.63
2023-04-28T18:46:30.977Z,13.10
2023-04-28T18:48:58.192Z,11.38
2023-04-28T18:51:25.344Z,11.57
2023-04-28T18:53:52.376Z,12.60
2023-04-28T18:56:20.976Z,12.68
2023-04-28T18:58:48.051Z,13.07
2023-04-28T19:01:16.035Z,12.45
2023-04-28T19:03:43.714Z,13.85
2023-04-28T19:06:11.157Z,12.80
2023-04-28T19:08:39.224Z,13.15
2023-04-28T19:11:09.700Z,12.88
2023-04-28T19:13:37.781Z,13.40
2023-04-28T19:16:05.637Z,13.73
2023-04-28T19:18:33.197Z,13.90
2023-04-28T19:21:04.620Z,14.40
2023-04-28T19:23:35.019Z,14.43
2023-04-28T19:26:02.137Z,15.30
2023-04-28T19:28:29.801Z,13.98
2023-04-28T19:30:57.561Z,15.40
2023-04-28T19:33:27.843Z,14.90
2023-04-28T19:35:55.492Z,14.05
2023-04-28T19:38:23.432Z,15.05
2023-04-28T19:40:52.050Z,14.38
2023-04-28T19:43:21.616Z,15.45
2023-04-28T19:45:51.066Z,15.00
2023-04-28T19:48:18.806Z,15.82
2023-04-28T19:50:46.033Z,14.23
2023-04-28T19:53:15.916Z,15.27
2023-04-28T19:55:43.046Z,13.57
2023-04-28T19:58:10.552Z,14.93
2023-04-28T20:00:37.724Z,13.18
2023-04-28T20:03:04.924Z,13.32
2023-04-28T20:05:32.049Z,14.10
2023-04-28T20:07:59.157Z,13.45
2023-04-28T20:10:26.188Z,13.98
2023-04-28T20:12:54.445Z,13.93
2023-04-28T20:15:21.564Z,12.90
2023-04-28T20:17:48.756Z,12.15
2023-04-28T20:20:16.624Z,15.15
2023-04-28T20:22:43.988Z,14.10
2023-04-28T20:25:11.325Z,13.88
2023-04-28T20:27:38.669Z,14.13
2023-04-28T20:30:06.472Z,13.43
2023-04-28T20:32:33.558Z,12.02
2023-04-28T20:35:02.923Z,12.80
2023-04-28T20:37:30.110Z,12.38
2023-04-28T20:39:57.182Z,12.18
2023-04-28T20:42:24.307Z,11.82
2023-04-28T20:44:51.599Z,11.18
2023-04-28T20:47:18.835Z,10.15
2023-04-28T20:49:47.235Z,10.30
2023-04-28T20:52:14.315Z,10.32
2023-04-28T20:54:43.552Z,10.50
2023-04-28T20:57:11.296Z,9.80
2023-04-28T20:59:38.389Z,9.35
2023-04-28T21:02:05.497Z,10.60
2023-04-28T21:04:32.790Z,10.13
2023-04-28T21:07:00.258Z,11.38
2023-04-28T21:09:27.380Z,11.02
2023-04-28T21:11:55.021Z,10.25
2023-04-28T21:14:22.151Z,10.52
2023-04-28T21:16:50.663Z,11.50
2023-04-28T21:19:18.496Z,10.23
2023-04-28T21:21:45.638Z,12.20
2023-04-28T21:24:12.938Z,10.43
2023-04-28T21:26:40.750Z,11.18
2023-04-28T21:29:09.191Z,12.65
2023-04-28T21:31:36.515Z,10.63
2023-04-28T21:34:03.598Z,11.13
2023-04-28T21:36:31.185Z,11.77
2023-04-28T21:38:58.211Z,10.88
2023-04-28T21:41:25.365Z,10.25
2023-04-28T21:43:52.830Z,11.82
2023-04-28T21:46:19.921Z,11.63
2023-04-28T21:48:47.299Z,10.52
2023-04-28T21:51:14.505Z,12.70
2023-04-28T21:53:41.600Z,12.45
2023-04-28T21:56:08.842Z,11.63
2023-04-28T21:58:36.157Z,12.25
2023-04-28T22:01:04.403Z,12.15
2023-04-28T22:03:34.006Z,12.65
2023-04-28T22:06:01.406Z,11.82
2023-04-28T22:08:28.424Z,12.65
2023-04-28T22:10:55.521Z,11.88
2023-04-28T22:13:22.944Z,12.40
2023-04-28T22:15:49.988Z,11.65
2023-04-28T22:18:17.492Z,13.75
2023-04-28T22:20:45.084Z,12.90
2023-04-28T22:23:12.443Z,11.90
2023-04-28T22:25:39.566Z,12.48
2023-04-28T22:28:06.632Z,12.45
2023-04-28T22:30:33.675Z,12.48
2023-04-28T22:33:00.855Z,11.90
2023-04-28T22:35:28.111Z,13.13
2023-04-28T22:37:55.192Z,12.20
2023-04-28T22:40:22.493Z,13.82
2023-04-28T22:42:49.613Z,12.90
2023-04-28T22:45:16.872Z,12.93
2023-04-28T22:47:43.940Z,12.45
2023-04-28T22:50:11.750Z,13.55
2023-04-28T22:52:39.097Z,13.10
2023-04-28T22:55:06.485Z,14.05
2023-04-28T22:57:33.638Z,14.10
2023-04-28T23:00:00.789Z,13.57
2023-04-28T23:02:28.597Z,14.20
2023-04-28T23:04:56.646Z,14.18
2023-04-28T23:07:23.694Z,14.25
2023-04-28T23:09:51.076Z,13.32
2023-04-28T23:12:18.521Z,14.45
2023-04-28T23:14:45.575Z,13.52
2023-04-28T23:17:12.640Z,14.32
2023-04-28T23:19:39.847Z,13.80
2023-04-28T23:22:07.915Z,12.98
2023-04-28T23:24:36.746Z,13.20
2023-04-28T23:27:03.957Z,14.02
2023-04-28T23:29:31.414Z,13.00
2023-04-28T23:31:58.724Z,14.80
2023-04-28T23:34:25.859Z,13.82
2023-04-28T23:36:52.935Z,14.05
2023-04-28T23:39:20.102Z,13.63
2023-04-28T23:41:47.161Z,13.23
2023-04-28T23:44:14.221Z,13.27
2023-04-28T23:46:41.266Z,12.60
2023-04-28T23:49:08.327Z,13.18
2023-04-28T23:51:35.980Z,13.93
2023-04-28T23:54:03.660Z,12.75
2023-04-28T23:56:31.555Z,12.40
2023-04-28T23:58:58.595Z,12.40
